createdAt,value
2023-04-13T00:00:52.673Z,14.70
2023-04-13T00:03:19.917Z,16.52
2023-04-13T00:05:47.198Z,16.75
2023-04-13T00:08:14.463Z,16.67
2023-04-13T00:10:42.002Z,13.38
2023-04-13T00:13:11.160Z,18.23
2023-04-13T00:15:42.249Z,21.50
2023-04-13T00:18:11.147Z,15.25
2023-04-13T00:20:39.388Z,16.63
2023-04-13T00:23:06.574Z,17.50
2023-04-13T00:25:34.703Z,17.23
2023-04-13T00:28:06.514Z,16.42
2023-04-13T00:30:33.648Z,18.23
2023-04-13T00:33:03.865Z,18.70
2023-04-13T00:35:31.325Z,19.77
2023-04-13T00:37:59.042Z,19.92
2023-04-13T00:40:28.277Z,18.25
2023-04-13T00:42:55.291Z,16.85
2023-04-13T00:45:22.328Z,18.73
2023-04-13T00:47:51.070Z,17.23
2023-04-13T00:50:21.356Z,16.55
2023-04-13T00:52:49.203Z,21.80
2023-04-13T00:55:21.368Z,17.70
2023-04-13T00:57:50.489Z,24.70
2023-04-13T01:00:18.563Z,19.45
2023-04-13T01:02:45.610Z,19.08
2023-04-13T01:05:15.782Z,17.60
2023-04-13T01:08:00.485Z,19.40
2023-04-13T01:10:45.556Z,20.47
2023-04-13T01:13:41.459Z,21.30
2023-04-13T01:18:49.268Z,27.92
2023-04-13T01:21:21.887Z,19.15
2023-04-13T01:24:23.171Z,21.75
2023-04-13T01:27:05.843Z,21.08
2023-04-13T01:29:34.276Z,20.67
2023-04-13T01:32:02.175Z,17.27
2023-04-13T01:34:29.812Z,19.15
2023-04-13T01:36:57.376Z,20.08
2023-04-13T01:39:27.102Z,15.85
2023-04-13T01:41:54.532Z,18.67
2023-04-13T01:44:22.526Z,17.90
2023-04-13T01:46:54.515Z,21.25
2023-04-13T01:49:23.340Z,21.27
2023-04-13T01:51:53.718Z,15.20
2023-04-13T01:54:25.857Z,19.95
2023-04-13T01:56:53.793Z,18.52
2023-04-13T01:59:22.868Z,20.42
2023-04-13T02:01:50.095Z,18.80
2023-04-13T02:04:17.268Z,23.60
2023-04-13T02:06:44.374Z,20.40
2023-04-13T02:09:12.129Z,15.43
2023-04-13T02:11:39.516Z,17.42
2023-04-13T02:14:06.783Z,17.67
2023-04-13T02:16:34.033Z,18.90
2023-04-13T02:19:04.274Z,14.10
2023-04-13T02:21:31.125Z,13.30
2023-04-13T02:23:58.478Z,15.38
2023-04-13T02:26:26.441Z,13.13
2023-04-13T02:28:53.418Z,15.20
2023-04-13T02:31:23.619Z,16.67
2023-04-13T02:33:51.954Z,11.95
2023-04-13T02:36:19.405Z,13.73
2023-04-13T02:38:50.510Z,13.43
2023-04-13T02:41:23.126Z,11.60
2023-04-13T02:43:52.558Z,13.52
2023-04-13T02:46:19.529Z,11.82
2023-04-13T02:48:46.983Z,17.65
2023-04-13T02:51:13.981Z,16.02
2023-04-13T02:53:41.536Z,15.48
2023-04-13T02:56:09.745Z,15.55
2023-04-13T02:58:36.845Z,12.88
2023-04-13T03:01:04.642Z,12.82
2023-04-13T03:03:31.574Z,15.50
2023-04-13T03:05:58.957Z,17.08
2023-04-13T03:08:26.163Z,12.73
2023-04-13T03:10:54.506Z,13.50
2023-04-13T03:13:21.761Z,12.43
2023-04-13T03:15:48.484Z,12.23
2023-04-13T03:18:16.455Z,16.77
2023-04-13T03:20:44.388Z,11.50
2023-04-13T03:23:12.108Z,18.33
2023-04-13T03:25:39.850Z,12.65
2023-04-13T03:28:06.739Z,13.52
2023-04-13T03:30:34.265Z,13.43
2023-04-13T03:33:01.215Z,14.30
2023-04-13T03:35:28.395Z,13.00
2023-04-13T03:37:56.198Z,12.13
2023-04-13T03:40:23.245Z,11.77
2023-04-13T03:42:50.188Z,13.13
2023-04-13T03:45:18.504Z,11.27
2023-04-13T03:47:45.533Z,15.35
2023-04-13T03:50:12.766Z,13.15
2023-04-13T03:52:40.909Z,13.45
2023-04-13T03:55:08.376Z,13.60
2023-04-13T03:57:37.340Z,13.57
2023-04-13T04:00:07.130Z,11.25
2023-04-13T04:02:34.560Z,12.38
2023-04-13T04:05:01.559Z,10.50
2023-04-13T04:07:28.479Z,12.60
2023-04-13T04:09:58.318Z,12.40
2023-04-13T04:12:25.108Z,11.50
2023-04-13T04:14:52.334Z,13.75
2023-04-13T04:17:19.276Z,11.95
2023-04-13T04:19:46.837Z,8.40
2023-04-13T04:22:14.297Z,11.50
2023-04-13T04:24:42.542Z,12.35
2023-04-13T04:27:09.455Z,10.95
2023-04-13T04:29:36.488Z,11.80
2023-04-13T04:32:05.875Z,10.70
2023-04-13T04:34:43.673Z,8.35
2023-04-13T04:37:20.076Z,9.40
2023-04-13T04:39:47.496Z,11.70
2023-04-13T04:42:14.905Z,12.10
2023-04-13T04:44:44.785Z,10.98
2023-04-13T04:47:13.669Z,13.68
2023-04-13T04:49:40.914Z,11.85
2023-04-13T04:52:12.698Z,10.48
2023-04-13T04:54:39.987Z,9.52
2023-04-13T04:57:10.819Z,11.65
2023-04-13T04:59:37.844Z,9.73
2023-04-13T05:02:04.850Z,13.27
2023-04-13T05:04:31.660Z,8.50
2023-04-13T05:06:58.580Z,12.73
2023-04-13T05:09:26.221Z,10.82
2023-04-13T05:11:53.266Z,13.30
2023-04-13T05:14:20.842Z,13.25
2023-04-13T05:16:48.164Z,13.65
2023-04-13T05:19:15.127Z,16.17
2023-04-13T05:21:41.990Z,8.98
2023-04-13T05:24:09.085Z,10.80
2023-04-13T05:26:36.031Z,19.17
2023-04-13T05:29:04.867Z,10.02
2023-04-13T05:31:32.388Z,11.20
2023-04-13T05:33:59.352Z,9.45
2023-04-13T05:36:26.810Z,8.70
2023-04-13T05:38:53.789Z,8.70
2023-04-13T05:41:24.282Z,11.10
2023-04-13T05:43:51.440Z,10.32
2023-04-13T05:46:18.651Z,13.27
2023-04-13T05:48:45.683Z,8.07
2023-04-13T05:51:18.526Z,14.13
2023-04-13T05:53:47.166Z,10.18
2023-04-13T05:56:13.960Z,12.30
2023-04-13T05:58:41.971Z,11.52
2023-04-13T06:01:12.976Z,8.80
2023-04-13T06:03:40.044Z,11.43
2023-04-13T06:06:07.313Z,9.88
2023-04-13T06:08:34.938Z,10.73
2023-04-13T06:11:03.219Z,9.93
2023-04-13T06:13:32.040Z,13.13
2023-04-13T06:15:59.066Z,14.13
2023-04-13T06:18:29.417Z,10.05
2023-04-13T06:20:57.818Z,11.25
2023-04-13T06:23:24.538Z,9.07
2023-04-13T06:25:52.159Z,9.55
2023-04-13T06:28:19.172Z,10.27
2023-04-13T06:30:46.301Z,13.45
2023-04-13T06:33:15.522Z,10.63
2023-04-13T06:35:42.369Z,16.63
2023-04-13T06:38:10.406Z,13.32
2023-04-13T06:40:37.610Z,9.80
2023-04-13T06:43:06.175Z,10.80
2023-04-13T06:45:34.331Z,10.10
2023-04-13T06:48:02.006Z,9.70
2023-04-13T06:50:29.274Z,10.32
2023-04-13T06:52:56.109Z,16.92
2023-04-13T06:55:23.184Z,15.30
2023-04-13T06:57:50.595Z,13.00
2023-04-13T07:00:29.646Z,15.48
2023-04-13T07:03:00.346Z,12.82
2023-04-13T07:05:27.972Z,14.25
2023-04-13T07:07:55.136Z,14.32
2023-04-13T07:10:22.165Z,13.20
2023-04-13T07:12:49.622Z,12.05
2023-04-13T07:15:16.659Z,13.70
2023-04-13T07:17:43.716Z,13.45
2023-04-13T07:20:12.176Z,11.43
2023-04-13T07:22:41.549Z,16.35
2023-04-13T07:25:08.678Z,15.38
2023-04-13T07:27:35.748Z,13.43
2023-04-13T07:30:02.724Z,17.58
2023-04-13T07:32:31.349Z,20.30
2023-04-13T07:35:02.813Z,15.60
2023-04-13T07:37:36.038Z,12.63
2023-04-13T07:40:05.712Z,10.35
2023-04-13T07:42:32.549Z,10.77
2023-04-13T07:44:59.897Z,14.60
2023-04-13T07:47:27.066Z,12.30
2023-04-13T07:49:54.660Z,20.95
2023-04-13T07:52:22.400Z,13.40
2023-04-13T07:54:49.818Z,13.52
2023-04-13T07:57:21.515Z,12.93
2023-04-13T07:59:48.739Z,12.85
2023-04-13T08:02:17.400Z,19.77
2023-04-13T08:04:46.216Z,9.68
2023-04-13T08:07:13.774Z,14.73
2023-04-13T08:09:42.612Z,13.95
2023-04-13T08:12:10.310Z,23.15
2023-04-13T08:14:37.456Z,13.38
2023-04-13T08:17:06.384Z,18.27
2023-04-13T08:19:34.211Z,16.38
2023-04-13T08:22:01.269Z,18.77
2023-04-13T08:24:28.243Z,20.05
2023-04-13T08:26:58.244Z,12.50
2023-04-13T08:29:25.654Z,13.32
2023-04-13T08:31:53.299Z,18.98
2023-04-13T08:34:21.840Z,18.83
2023-04-13T08:36:48.552Z,19.95
2023-04-13T08:39:16.876Z,20.30
2023-04-13T08:41:48.147Z,12.52
2023-04-13T08:44:15.940Z,17.90
2023-04-13T08:46:46.223Z,13.23
2023-04-13T08:49:13.783Z,13.55
2023-04-13T08:51:43.977Z,14.45
2023-04-13T08:54:13.121Z,13.60
2023-04-13T08:56:45.876Z,15.68
2023-04-13T08:59:15.799Z,13.98
2023-04-13T09:01:46.699Z,24.42
2023-04-13T09:04:18.247Z,16.23
2023-04-13T09:06:48.148Z,19.67
2023-04-13T09:09:15.572Z,16.65
2023-04-13T09:11:43.658Z,18.13
2023-04-13T09:14:10.770Z,14.18
2023-04-13T09:16:42.656Z,17.88
2023-04-13T09:19:10.494Z,14.57
2023-04-13T09:21:39.832Z,17.48
2023-04-13T09:24:07.844Z,19.60
2023-04-13T09:26:50.640Z,14.05
2023-04-13T09:29:19.632Z,20.83
2023-04-13T09:31:48.032Z,18.20
2023-04-13T09:34:25.677Z,21.88
2023-04-13T09:36:54.917Z,20.05
2023-04-13T09:39:28.572Z,11.57
2023-04-13T09:41:56.479Z,11.60
2023-04-13T09:44:35.038Z,10.75
2023-04-13T09:47:08.299Z,14.77
2023-04-13T09:49:38.890Z,16.15
2023-04-13T09:52:08.601Z,18.80
2023-04-13T09:54:51.191Z,13.23
2023-04-13T09:57:29.900Z,17.85
2023-04-13T10:00:01.998Z,16.77
2023-04-13T10:02:32.256Z,16.90
2023-04-13T10:05:01.779Z,19.30
2023-04-13T10:07:31.001Z,12.77
2023-04-13T10:09:58.192Z,15.98
2023-04-13T10:12:27.767Z,16.00
2023-04-13T10:15:05.481Z,17.25
2023-04-13T10:17:43.932Z,19.20
2023-04-13T10:20:14.021Z,16.50
2023-04-13T10:22:44.446Z,18.38
2023-04-13T10:25:32.040Z,18.55
2023-04-13T10:28:05.465Z,20.55
2023-04-13T10:30:32.528Z,11.50
2023-04-13T10:33:06.627Z,17.25
2023-04-13T10:35:40.759Z,13.30
2023-04-13T10:38:20.461Z,12.25
2023-04-13T10:40:48.759Z,17.13
2023-04-13T10:43:26.409Z,20.00
2023-04-13T10:46:05.999Z,16.77
2023-04-13T10:48:32.975Z,24.13
2023-04-13T10:51:00.556Z,17.75
2023-04-13T10:53:31.250Z,19.30
2023-04-13T10:55:58.270Z,20.52
2023-04-13T10:58:27.081Z,21.05
2023-04-13T11:00:57.762Z,19.77
2023-04-13T11:03:29.914Z,21.98
2023-04-13T11:05:59.753Z,16.63
2023-04-13T11:08:28.215Z,18.75
2023-04-13T11:10:56.558Z,26.65
2023-04-13T11:13:29.508Z,20.48
2023-04-13T11:16:04.851Z,22.08
2023-04-13T11:21:06.019Z,27.45
2023-04-13T11:23:34.951Z,22.40
2023-04-13T11:26:02.344Z,18.77
2023-04-13T11:28:43.940Z,20.17
2023-04-13T11:31:12.156Z,26.65
2023-04-13T11:33:40.472Z,18.45
2023-04-13T11:36:08.430Z,19.08
2023-04-13T11:38:35.606Z,19.85
2023-04-13T11:41:15.706Z,21.98
2023-04-13T11:43:48.300Z,22.17
2023-04-13T11:46:23.506Z,20.33
2023-04-13T11:51:21.240Z,25.02
2023-04-13T11:53:51.428Z,27.00
2023-04-13T11:56:18.449Z,25.08
2023-04-13T11:58:45.761Z,23.95
2023-04-13T12:01:21.959Z,24.83
2023-04-13T12:04:01.472Z,22.85
2023-04-13T12:06:35.665Z,21.58
2023-04-13T12:09:11.458Z,23.90
2023-04-13T12:11:44.680Z,22.85
2023-04-13T12:19:27.166Z,20.73
2023-04-13T12:21:58.066Z,26.17
2023-04-13T12:24:39.380Z,24.35
2023-04-13T12:29:40.851Z,22.65
2023-04-13T12:32:15.406Z,25.10
2023-04-13T12:34:44.236Z,22.23
2023-04-13T12:37:12.020Z,28.38
2023-04-13T12:39:39.129Z,23.02
2023-04-13T12:42:06.478Z,24.23
2023-04-13T12:44:34.534Z,25.58
2023-04-13T12:47:02.690Z,25.85
2023-04-13T12:49:30.615Z,26.35
2023-04-13T12:51:57.775Z,24.67
2023-04-13T12:54:24.934Z,26.13
2023-04-13T12:56:52.486Z,19.73
2023-04-13T12:59:22.320Z,26.30
2023-04-13T13:01:49.910Z,30.52
2023-04-13T13:04:17.486Z,28.77
2023-04-13T13:06:44.594Z,34.53
2023-04-13T13:09:12.200Z,24.13
2023-04-13T13:11:39.256Z,19.83
2023-04-13T13:14:06.430Z,29.90
2023-04-13T13:16:33.754Z,23.13
2023-04-13T13:19:00.704Z,24.83
2023-04-13T13:21:28.342Z,23.30
2023-04-13T13:23:55.452Z,25.63
2023-04-13T13:26:24.338Z,27.73
2023-04-13T13:28:53.661Z,28.45
2023-04-13T13:31:20.975Z,26.65
2023-04-13T13:33:47.841Z,28.60
2023-04-13T13:36:15.537Z,28.92
2023-04-13T13:38:43.538Z,27.50
2023-04-13T13:41:11.107Z,22.60
2023-04-13T13:43:51.152Z,29.70
2023-04-13T13:46:18.676Z,31.65
2023-04-13T13:48:45.709Z,24.90
2023-04-13T13:51:12.729Z,28.83
2023-04-13T13:53:39.621Z,27.42
2023-04-13T13:56:06.857Z,24.33
2023-04-13T13:58:33.846Z,24.17
2023-04-13T14:01:00.975Z,19.48
2023-04-13T14:03:30.300Z,23.70
2023-04-13T14:05:57.342Z,26.20
2023-04-13T14:08:24.173Z,28.25
2023-04-13T14:10:51.386Z,26.00
2023-04-13T14:13:18.331Z,27.33
2023-04-13T14:15:45.353Z,28.50
2023-04-13T14:18:12.405Z,22.55
2023-04-13T14:20:40.772Z,24.65
2023-04-13T14:23:09.556Z,25.05
2023-04-13T14:25:38.844Z,29.30
2023-04-13T14:28:06.958Z,26.95
2023-04-13T14:30:33.933Z,25.88
2023-04-13T14:33:01.833Z,26.50
2023-04-13T14:35:29.491Z,23.08
2023-04-13T14:37:57.175Z,21.50
2023-04-13T14:40:24.575Z,21.83
2023-04-13T14:42:55.723Z,31.02
2023-04-13T14:45:22.857Z,25.23
2023-04-13T14:47:50.476Z,26.52
2023-04-13T14:50:18.000Z,24.40
2023-04-13T14:52:46.419Z,24.38
2023-04-13T14:55:14.512Z,28.40
2023-04-13T14:57:42.226Z,17.38
2023-04-13T15:00:16.303Z,29.10
2023-04-13T15:02:43.530Z,27.73
2023-04-13T15:05:10.617Z,17.30
2023-04-13T15:07:37.608Z,23.77
2023-04-13T15:10:08.743Z,23.63
2023-04-13T15:12:35.662Z,26.38
2023-04-13T15:15:02.717Z,19.05
2023-04-13T15:17:30.036Z,21.45
2023-04-13T15:19:57.053Z,28.35
2023-04-13T15:22:24.520Z,33.75
2023-04-13T15:24:51.669Z,22.40
2023-04-13T15:27:18.733Z,25.40
2023-04-13T15:29:46.181Z,25.73
2023-04-13T15:32:13.341Z,22.83
2023-04-13T15:34:40.770Z,24.25
2023-04-13T15:37:07.509Z,21.30
2023-04-13T15:39:34.504Z,25.58
2023-04-13T15:42:02.432Z,20.50
2023-04-13T15:44:29.336Z,28.50
2023-04-13T15:46:56.276Z,29.63
2023-04-13T15:49:23.313Z,19.77
2023-04-13T15:51:50.059Z,23.52
2023-04-13T15:54:17.240Z,21.92
2023-04-13T15:56:44.358Z,22.85
2023-04-13T15:59:11.524Z,26.33
2023-04-13T16:01:47.005Z,24.35
2023-04-13T16:04:14.855Z,19.40
2023-04-13T16:06:42.800Z,23.90
2023-04-13T16:09:12.969Z,30.65
2023-04-13T16:11:40.256Z,19.15
2023-04-13T16:14:07.849Z,16.52
2023-04-13T16:16:46.933Z,22.05
2023-04-13T16:19:18.757Z,18.50
2023-04-13T16:21:47.410Z,23.10
2023-04-13T16:24:15.064Z,22.13
2023-04-13T16:26:43.034Z,15.02
2023-04-13T16:29:10.038Z,25.65
2023-04-13T16:31:37.236Z,27.92
2023-04-13T16:34:22.154Z,16.73
2023-04-13T16:36:52.462Z,23.05
2023-04-13T16:39:19.474Z,19.30
2023-04-13T16:41:46.561Z,25.35
2023-04-13T16:44:14.114Z,21.27
2023-04-13T16:46:41.067Z,19.25
2023-04-13T16:49:08.103Z,29.42
2023-04-13T16:51:35.390Z,21.90
2023-04-13T16:54:04.286Z,19.45
2023-04-13T16:56:31.393Z,22.85
2023-04-13T16:58:58.727Z,27.50
2023-04-13T17:01:26.615Z,15.73
2023-04-13T17:03:54.147Z,23.92
2023-04-13T17:06:21.774Z,18.98
2023-04-13T17:08:49.024Z,17.15
2023-04-13T17:11:16.137Z,24.65
2023-04-13T17:13:43.092Z,22.83
2023-04-13T17:16:10.565Z,19.85
2023-04-13T17:18:37.649Z,20.17
2023-04-13T17:21:04.817Z,19.60
2023-04-13T17:23:32.249Z,22.13
2023-04-13T17:25:59.143Z,17.52
2023-04-13T17:28:26.465Z,14.50
2023-04-13T17:30:54.111Z,26.05
2023-04-13T17:33:21.060Z,13.88
2023-04-13T17:35:48.273Z,20.73
2023-04-13T17:38:15.469Z,26.13
2023-04-13T17:40:42.450Z,13.32
2023-04-13T17:43:09.805Z,18.38
2023-04-13T17:45:39.196Z,18.73
2023-04-13T17:48:08.418Z,23.05
2023-04-13T17:50:35.466Z,16.98
2023-04-13T17:53:04.242Z,18.63
2023-04-13T17:55:31.746Z,24.63
2023-04-13T17:57:58.646Z,18.83
2023-04-13T18:00:27.936Z,15.05
2023-04-13T18:02:55.620Z,27.45
2023-04-13T18:05:22.961Z,26.08
2023-04-13T18:07:50.009Z,20.15
2023-04-13T18:10:17.464Z,21.23
2023-04-13T18:12:44.595Z,19.05
2023-04-13T18:15:11.873Z,22.63
2023-04-13T18:17:39.468Z,24.98
2023-04-13T18:20:07.370Z,23.48
2023-04-13T18:22:35.084Z,25.83
2023-04-13T18:25:02.036Z,22.15
2023-04-13T18:27:29.034Z,23.83
2023-04-13T18:29:56.438Z,16.55
2023-04-13T18:32:24.253Z,21.65
2023-04-13T18:34:53.200Z,20.92
2023-04-13T18:37:21.318Z,27.02
2023-04-13T18:39:48.275Z,26.58
2023-04-13T18:42:15.010Z,18.13
2023-04-13T18:44:41.858Z,19.52
2023-04-13T18:47:08.762Z,22.65
2023-04-13T18:49:35.535Z,26.27
2023-04-13T18:52:02.632Z,21.85
2023-04-13T18:54:30.067Z,18.38
2023-04-13T18:56:57.054Z,20.60
2023-04-13T18:59:23.997Z,24.23
2023-04-13T19:01:51.363Z,21.23
2023-04-13T19:04:18.508Z,19.13
2023-04-13T19:06:45.735Z,23.40
2023-04-13T19:09:12.529Z,16.48
2023-04-13T19:11:47.973Z,23.55
2023-04-13T19:14:14.820Z,18.35
2023-04-13T19:16:42.211Z,21.15
2023-04-13T19:19:09.246Z,16.17
2023-04-13T19:21:36.277Z,18.00
2023-04-13T19:24:03.069Z,16.58
2023-04-13T19:26:30.652Z,15.43
2023-04-13T19:28:57.755Z,17.38
2023-04-13T19:31:24.771Z,20.33
2023-04-13T19:33:52.467Z,21.92
2023-04-13T19:36:19.742Z,20.60
2023-04-13T19:38:47.273Z,21.80
2023-04-13T19:41:14.654Z,15.48
2023-04-13T19:43:41.711Z,23.98
2023-04-13T19:46:08.861Z,16.27
2023-04-13T19:48:36.329Z,29.77
2023-04-13T19:51:03.355Z,23.65
2023-04-13T19:53:30.159Z,24.15
2023-04-13T19:55:58.352Z,18.05
2023-04-13T19:58:25.321Z,16.05
2023-04-13T20:00:52.988Z,25.05
2023-04-13T20:03:20.601Z,22.55
2023-04-13T20:05:48.646Z,15.38
2023-04-13T20:08:16.602Z,20.88
2023-04-13T20:10:43.638Z,17.08
2023-04-13T20:13:11.456Z,25.17
2023-04-13T20:15:38.596Z,19.05
2023-04-13T20:18:06.745Z,28.95
2023-04-13T20:20:35.622Z,23.85
2023-04-13T20:23:03.295Z,24.50
2023-04-13T20:25:30.532Z,20.48
2023-04-13T20:27:57.430Z,23.30
2023-04-13T20:30:24.846Z,25.42
2023-04-13T20:32:51.707Z,21.65
2023-04-13T20:35:20.040Z,21.30
2023-04-13T20:37:46.717Z,23.38
2023-04-13T20:40:13.730Z,21.08
2023-04-13T20:42:44.504Z,20.83
2023-04-13T20:45:15.356Z,24.13
2023-04-13T20:47:45.122Z,33.85
2023-04-13T20:50:13.347Z,27.98
2023-04-13T20:52:42.116Z,28.58
2023-04-13T20:55:12.058Z,22.40
2023-04-13T20:57:42.270Z,24.63
2023-04-13T21:00:15.448Z,27.63
2023-04-13T21:02:43.868Z,20.85
2023-04-13T21:05:10.826Z,24.55
2023-04-13T21:07:38.236Z,29.42
2023-04-13T21:10:05.544Z,24.02
2023-04-13T21:12:32.545Z,24.85
2023-04-13T21:15:00.994Z,22.38
2023-04-13T21:17:31.066Z,25.30
2023-04-13T21:19:58.155Z,24.42
2023-04-13T21:22:25.124Z,26.52
2023-04-13T21:24:52.646Z,19.85
2023-04-13T21:27:19.680Z,24.17
2023-04-13T21:29:46.693Z,23.45
2023-04-13T21:32:13.889Z,27.52
2023-04-13T21:34:50.306Z,30.80
2023-04-13T21:37:17.070Z,24.35
2023-04-13T21:39:44.005Z,31.15
2023-04-13T21:42:11.164Z,31.42
2023-04-13T21:44:38.519Z,28.85
2023-04-13T21:47:06.277Z,28.50
2023-04-13T21:49:33.164Z,38.53
2023-04-13T21:52:00.230Z,26.77
2023-04-13T21:54:27.076Z,27.95
2023-04-13T21:56:53.750Z,26.10
2023-04-13T21:59:21.300Z,28.42
2023-04-13T22:01:48.346Z,26.85
2023-04-13T22:04:15.380Z,26.13
2023-04-13T22:06:42.121Z,23.33
2023-04-13T22:09:09.046Z,34.53
2023-04-13T22:11:36.159Z,21.73
2023-04-13T22:14:02.898Z,24.27
2023-04-13T22:16:30.248Z,29.30
2023-04-13T22:19:00.398Z,19.65
2023-04-13T22:21:28.012Z,17.23
2023-04-13T22:23:55.569Z,27.60
2023-04-13T22:26:22.726Z,25.33
2023-04-13T22:28:49.473Z,30.42
2023-04-13T22:31:16.986Z,28.48
2023-04-13T22:33:44.123Z,27.15
2023-04-13T22:36:20.060Z,23.48
2023-04-13T22:38:49.435Z,17.23
2023-04-13T22:41:16.757Z,23.38
2023-04-13T22:43:43.759Z,21.67
2023-04-13T22:46:12.682Z,28.35
2023-04-13T22:48:39.738Z,22.42
2023-04-13T22:51:06.767Z,32.72
2023-04-13T22:53:33.884Z,20.85
2023-04-13T22:56:01.114Z,26.52
2023-04-13T22:58:28.305Z,27.70
2023-04-13T23:00:55.588Z,23.85
2023-04-13T23:03:23.033Z,24.27
2023-04-13T23:05:50.321Z,26.73
2023-04-13T23:08:17.392Z,24.27
2023-04-13T23:10:44.459Z,26.98
2023-04-13T23:13:11.572Z,25.42
2023-04-13T23:15:39.580Z,25.83
2023-04-13T23:18:07.084Z,21.98
2023-04-13T23:20:34.342Z,22.52
2023-04-13T23:23:01.331Z,21.05
2023-04-13T23:25:28.000Z,23.83
2023-04-13T23:27:55.024Z,31.63
2023-04-13T23:30:22.151Z,18.55
2023-04-13T23:32:49.053Z,21.13
2023-04-13T23:35:16.164Z,27.65
2023-04-13T23:37:45.414Z,24.15
2023-04-13T23:40:12.621Z,22.88
2023-04-13T23:42:39.738Z,30.60
2023-04-13T23:45:10.542Z,19.17
2023-04-13T23:47:38.150Z,24.17
2023-04-13T23:50:05.491Z,20.52
2023-04-13T23:52:35.200Z,26.25
2023-04-13T23:55:02.439Z,24.27
2023-04-13T23:57:34.247Z,21.38
